^^
Grace C. Lehan Memorial Weather Station Historical Data
Daily Summary for June 21, 2021 Units:  English    Metric   Both
Daily Weekly Monthly Yearly
  High: Low: Average:
Temperature: 75.6 °F 70.2 °F 71.9 °F
Dew Point: 72.1 °F 67.2 °F 68.4 °F
Humidity: 93% 84% 89%
Wind Speed: 0mph 0mph 0mph
Wind Gust: 1mph - -
Wind- -
Pressure: 29.76 in 29.71 in -
Precipitation: 0.00 in    
 
 
Tabular Data for June 21, 2021
Time Temperature Dew Point Pressure Wind Wind Speed Wind Gust Humidity Rainfall Rate (Hourly) solar
00:09 74.1 °F 69 °F 29.76 in Calm     84% 0.00 in 0 W/m2
00:14 74 °F 68.9 °F 29.76 in Calm     84% 0.00 in 0 W/m2
00:19 73.9 °F 68.8 °F 29.75 in Calm     84% 0.00 in 0 W/m2
00:24 73.8 °F 68.7 °F 29.75 in Calm     84% 0.00 in 0 W/m2
00:29 73.7 °F 68.6 °F 29.75 in Calm     84% 0.00 in 0 W/m2
00:34 73.7 °F 68.5 °F 29.75 in Calm     84% 0.00 in 0 W/m2
00:39 73.5 °F 68.7 °F 29.74 in Calm     84.9% 0.00 in 0 W/m2
00:44 73.5 °F 68.7 °F 29.74 in Calm     85% 0.00 in 0 W/m2
00:49 73.4 °F 68.6 °F 29.74 in Calm     85% 0.00 in 0 W/m2
00:54 73.3 °F 68.5 °F 29.75 in Calm     85% 0.00 in 0 W/m2
00:59 73.2 °F 68.4 °F 29.74 in Calm     85% 0.00 in 0 W/m2
01:04 73.1 °F 68.3 °F 29.74 in Calm     85% 0.00 in 0 W/m2
01:09 73 °F 68.2 °F 29.73 in Calm     85% 0.00 in 0 W/m2
01:14 72.9 °F 68.1 °F 29.73 in Calm     85% 0.00 in 0 W/m2
01:19 72.8 °F 68 °F 29.73 in Calm   1 mph 85% 0.00 in 0 W/m2
01:24 72.7 °F 67.9 °F 29.73 in Calm   1 mph 85% 0.00 in 0 W/m2
01:29 72.7 °F 68.1 °F 29.73 in Calm   1 mph 85.6% 0.00 in 0 W/m2
01:34 72.6 °F 68.2 °F 29.73 in Calm   1 mph 86% 0.00 in 0 W/m2
01:39 72.6 °F 68.1 °F 29.73 in Calm     86% 0.00 in 0 W/m2
01:44 72.5 °F 68 °F 29.73 in Calm     86% 0.00 in 0 W/m2
01:49 72.4 °F 68 °F 29.72 in Calm     86% 0.00 in 0 W/m2
01:54 72.3 °F 67.9 °F 29.72 in Calm     86% 0.00 in 0 W/m2
01:59 72.2 °F 67.8 °F 29.72 in Calm     86% 0.00 in 0 W/m2
02:04 72.1 °F 67.7 °F 29.72 in Calm     86% 0.00 in 0 W/m2
02:09 72 °F 67.6 °F 29.72 in Calm     86% 0.00 in 0 W/m2
02:14 71.9 °F 67.5 °F 29.72 in Calm     86% 0.00 in 0 W/m2
02:19 71.9 °F 67.5 °F 29.72 in Calm     86% 0.00 in 0 W/m2
02:24 71.8 °F 67.4 °F 29.72 in Calm     86% 0.00 in 0 W/m2
02:29 71.7 °F 67.6 °F 29.72 in Calm     86.9% 0.00 in 0 W/m2
02:34 71.7 °F 67.6 °F 29.72 in Calm     87% 0.00 in 0 W/m2
02:39 71.6 °F 67.5 °F 29.72 in Calm     87% 0.00 in 0 W/m2
02:44 71.6 °F 67.5 °F 29.72 in Calm     87% 0.00 in 0 W/m2
02:49 71.5 °F 67.4 °F 29.71 in Calm     87% 0.00 in 0 W/m2
02:54 71.5 °F 67.4 °F 29.72 in Calm     87% 0.00 in 0 W/m2
02:59 71.5 °F 67.4 °F 29.72 in Calm     87% 0.00 in 0 W/m2
03:04 71.5 °F 67.4 °F 29.72 in Calm     87% 0.00 in 0 W/m2
03:09 71.5 °F 67.4 °F 29.72 in Calm     87% 0.00 in 0 W/m2
03:14 71.5 °F 67.4 °F 29.72 in Calm     87% 0.00 in 0 W/m2
03:19 71.5 °F 67.4 °F 29.72 in Calm     87% 0.00 in 0 W/m2
03:24 71.5 °F 67.4 °F 29.72 in Calm     87% 0.00 in 0 W/m2
03:29 71.4 °F 67.4 °F 29.72 in Calm     87% 0.00 in 0 W/m2
03:34 71.4 °F 67.5 °F 29.72 in Calm     87.4% 0.00 in 0 W/m2
03:39 71.3 °F 67.6 °F 29.72 in Calm     88% 0.00 in 0 W/m2
03:44 71.3 °F 67.6 °F 29.72 in Calm     88% 0.00 in 0 W/m2
03:49 71.2 °F 67.5 °F 29.72 in Calm     88% 0.00 in 0 W/m2
03:54 71.2 °F 67.5 °F 29.72 in Calm     88% 0.00 in 0 W/m2
03:59 71.1 °F 67.4 °F 29.72 in Calm     88% 0.00 in 0 W/m2
04:00 71.1 °F 67.4 °F 29.72 in Calm     88% 0.00 in 0 W/m2
04:09 71 °F 67.3 °F 29.73 in Calm     88% 0.00 in 0 W/m2
04:14 70.9 °F 67.2 °F 29.73 in Calm     88% 0.00 in 0 W/m2
04:19 70.9 °F 67.4 °F 29.73 in Calm     88.8% 0.00 in 0 W/m2
04:24 70.8 °F 67.4 °F 29.73 in Calm     89% 0.00 in 0 W/m2
04:29 70.8 °F 67.4 °F 29.73 in Calm     89% 0.00 in 0 W/m2
04:34 70.8 °F 67.4 °F 29.72 in Calm     89% 0.00 in 0 W/m2
04:39 70.8 °F 67.4 °F 29.72 in Calm     89% 0.00 in 0 W/m2
04:44 70.8 °F 67.5 °F 29.72 in Calm     89.5% 0.00 in 0 W/m2
04:49 70.8 °F 67.7 °F 29.72 in Calm     90% 0.00 in 0 W/m2
04:54 70.7 °F 67.6 °F 29.72 in Calm     90% 0.00 in 0 W/m2
04:59 70.7 °F 67.6 °F 29.72 in Calm     90% 0.00 in 0 W/m2
05:04 70.6 °F 67.5 °F 29.72 in Calm     90% 0.00 in 0 W/m2
05:09 70.5 °F 67.5 °F 29.72 in Calm     90% 0.00 in 0 W/m2
05:14 70.5 °F 67.4 °F 29.72 in Calm     90% 0.00 in 0 W/m2
05:19 70.4 °F 67.3 °F 29.72 in Calm     90% 0.00 in 0 W/m2
05:24 70.3 °F 67.3 °F 29.72 in Calm     90% 0.00 in 0 W/m2
05:29 70.3 °F 67.4 °F 29.72 in Calm     90.7% 0.00 in 5 W/m2
05:34 70.2 °F 67.5 °F 29.72 in Calm     91% 0.00 in 9 W/m2
05:39 70.2 °F 67.4 °F 29.72 in Calm     91% 0.00 in 11 W/m2
05:44 70.2 °F 67.4 °F 29.72 in Calm     91% 0.00 in 12 W/m2
05:49 70.2 °F 67.4 °F 29.72 in Calm     91% 0.00 in 16 W/m2
05:54 70.2 °F 67.8 °F 29.72 in Calm     91.9% 0.00 in 16 W/m2
05:59 70.3 °F 67.8 °F 29.72 in Calm     92% 0.00 in 21 W/m2
06:04 70.3 °F 67.9 °F 29.72 in Calm     92% 0.00 in 23 W/m2
06:09 70.4 °F 68 °F 29.73 in Calm     92% 0.00 in 26 W/m2
06:14 70.5 °F 68 °F 29.73 in Calm     92% 0.00 in 32 W/m2
06:19 70.5 °F 68.1 °F 29.72 in Calm     92% 0.00 in 32 W/m2
06:24 70.6 °F 68.2 °F 29.72 in Calm     92.1% 0.00 in 33 W/m2
06:29 70.7 °F 68.6 °F 29.73 in Calm     93% 0.00 in 35 W/m2
06:34 70.8 °F 68.7 °F 29.73 in Calm     93% 0.00 in 39 W/m2
06:39 70.9 °F 68.7 °F 29.73 in Calm     93% 0.00 in 35 W/m2
06:44 71 °F 68.9 °F 29.73 in Calm     93% 0.00 in 33 W/m2
06:49 71 °F 68.9 °F 29.73 in Calm     93% 0.00 in 33 W/m2
06:54 71.1 °F 68.8 °F 29.73 in Calm     92.5% 0.00 in 53 W/m2
06:59 71.2 °F 68.7 °F 29.73 in Calm     92% 0.00 in 53 W/m2
07:04 71.2 °F 69 °F 29.73 in Calm     92.6% 0.00 in 62 W/m2
07:09 71.3 °F 69 °F 29.73 in Calm   1 mph 92.3% 0.00 in 69 W/m2
07:14 71.3 °F 69.2 °F 29.73 in Calm   1 mph 93% 0.00 in 81 W/m2
07:19 71.5 °F 69.3 °F 29.73 in Calm   1 mph 93% 0.00 in 90 W/m2
07:24 71.6 °F 69.5 °F 29.73 in Calm   1 mph 93% 0.00 in 91 W/m2
07:29 71.8 °F 69.6 °F 29.73 in Calm   1 mph 93% 0.00 in 72 W/m2
07:34 72 °F 69.8 °F 29.73 in Calm   1 mph 93% 0.00 in 69 W/m2
07:39 72.2 °F 70 °F 29.73 in Calm     93% 0.00 in 97 W/m2
07:44 72.3 °F 70.1 °F 29.73 in Calm     92.7% 0.00 in 132 W/m2
07:49 72.5 °F 70.1 °F 29.73 in Calm     92% 0.00 in 118 W/m2
07:54 72.7 °F 70.2 °F 29.72 in Calm     92% 0.00 in 137 W/m2
07:59 72.9 °F 70.4 °F 29.72 in Calm     92% 0.00 in 114 W/m2
08:00 73 °F 70.5 °F 29.72 in Calm     92% 0.00 in 114 W/m2
08:09 73.3 °F 70.5 °F 29.72 in Calm   1 mph 91% 0.00 in 141 W/m2
08:14 73.5 °F 70.7 °F 29.71 in Calm   1 mph 91% 0.00 in 195 W/m2
08:19 73.7 °F 70.9 °F 29.71 in Calm   1 mph 91% 0.00 in 200 W/m2
08:24 73.9 °F 70.8 °F 29.71 in Calm   1 mph 90.1% 0.00 in 195 W/m2
08:29 74.2 °F 71.1 °F 29.71 in Calm   1 mph 90% 0.00 in 188 W/m2
08:34 74.4 °F 71.3 °F 29.71 in Calm   1 mph 90% 0.00 in 230 W/m2
08:39 74.8 °F 71.6 °F 29.71 in Calm     89.7% 0.00 in 271 W/m2
08:44 75.3 °F 72 °F 29.71 in Calm     89.6% 0.00 in 265 W/m2
08:48 75.6 °F 72.1 °F 29.71 in Calm     88.7% 0.00 in 265 W/m2
Hartford County Weather
Compliments of Weather Underground - 4 mb